createdAt,value
2024-02-12T00:00:23.135Z,8.00
2024-02-12T00:00:58.908Z,8.00
2024-02-12T00:01:32.512Z,7.96
2024-02-12T00:02:06.543Z,7.96
2024-02-12T00:02:40.533Z,7.96
2024-02-12T00:03:12.761Z,7.97
2024-02-12T00:03:45.145Z,7.96
2024-02-12T00:04:19.746Z,7.96
2024-02-12T00:04:52.535Z,7.95
2024-02-12T00:05:24.858Z,7.94
2024-02-12T00:05:56.950Z,7.96
2024-02-12T00:06:30.555Z,7.98
2024-02-12T00:07:02.438Z,8.00
2024-02-12T00:07:34.664Z,8.00
2024-02-12T00:08:09.627Z,7.99
2024-02-12T00:08:43.945Z,7.95
2024-02-12T00:09:15.999Z,7.93
2024-02-12T00:09:48.356Z,7.91
2024-02-12T00:10:20.274Z,7.91
2024-02-12T00:10:52.228Z,7.89
2024-02-12T00:11:25.720Z,7.88
2024-02-12T00:11:57.688Z,7.87
2024-02-12T00:12:29.538Z,7.88
2024-02-12T00:13:01.601Z,7.88
2024-02-12T00:13:34.038Z,7.86
2024-02-12T00:14:06.289Z,7.88
2024-02-12T00:14:39.371Z,7.87
2024-02-12T00:15:14.433Z,7.90
2024-02-12T00:15:46.470Z,7.90
2024-02-12T00:16:18.368Z,7.87
2024-02-12T00:16:50.493Z,7.87
2024-02-12T00:17:22.452Z,7.82
2024-02-12T00:17:57.314Z,7.81
2024-02-12T00:18:29.311Z,7.84
2024-02-12T00:19:02.418Z,7.84
2024-02-12T00:19:38.763Z,7.85
2024-02-12T00:20:13.369Z,7.85
2024-02-12T00:20:45.999Z,7.84
2024-02-12T00:21:19.678Z,7.87
2024-02-12T00:21:51.861Z,7.91
2024-02-12T00:22:26.786Z,7.89
2024-02-12T00:23:01.078Z,7.90
2024-02-12T00:23:34.943Z,7.87
2024-02-12T00:24:07.770Z,7.88
2024-02-12T00:24:39.698Z,7.84
2024-02-12T00:25:17.263Z,7.84
2024-02-12T00:25:49.883Z,7.85
2024-02-12T00:26:26.002Z,7.85
2024-02-12T00:27:02.205Z,7.82
2024-02-12T00:27:35.105Z,7.82
2024-02-12T00:28:08.933Z,7.84
2024-02-12T00:28:40.922Z,7.84
2024-02-12T00:29:14.766Z,7.83
2024-02-12T00:29:48.286Z,7.83
2024-02-12T00:30:21.415Z,7.82
2024-02-12T00:30:53.355Z,7.80
2024-02-12T00:31:27.838Z,7.76
2024-02-12T00:32:00.005Z,7.77
2024-02-12T00:32:33.022Z,7.75
2024-02-12T00:33:05.966Z,7.78
2024-02-12T00:33:38.021Z,7.78
2024-02-12T00:34:11.084Z,7.74
2024-02-12T00:34:43.019Z,7.74
2024-02-12T00:35:17.006Z,7.77
2024-02-12T00:35:49.227Z,7.76
2024-02-12T00:36:21.761Z,7.77
2024-02-12T00:36:54.160Z,7.76
2024-02-12T00:37:28.721Z,7.74
2024-02-12T00:38:04.886Z,7.75
2024-02-12T00:38:37.035Z,7.76
2024-02-12T00:39:11.005Z,7.73
2024-02-12T00:39:43.394Z,7.75
2024-02-12T00:40:16.316Z,7.77
2024-02-12T00:40:48.218Z,7.75
2024-02-12T00:41:21.996Z,7.76
2024-02-12T00:41:54.568Z,7.75
2024-02-12T00:42:26.625Z,7.74
2024-02-12T00:42:59.146Z,7.71
2024-02-12T00:43:31.093Z,7.70
2024-02-12T00:44:05.350Z,7.72
2024-02-12T00:44:38.831Z,7.71
2024-02-12T00:45:12.274Z,7.69
2024-02-12T00:45:44.339Z,7.71
2024-02-12T00:46:20.041Z,7.71
2024-02-12T00:46:56.177Z,7.67
2024-02-12T00:47:28.500Z,7.66
2024-02-12T00:48:00.542Z,7.69
2024-02-12T00:48:33.362Z,7.68
2024-02-12T00:49:05.513Z,7.70
2024-02-12T00:49:37.603Z,7.67
2024-02-12T00:50:10.533Z,7.71
2024-02-12T00:50:42.556Z,7.70
2024-02-12T00:51:17.351Z,7.70
2024-02-12T00:51:49.573Z,7.68
2024-02-12T00:52:24.720Z,7.69
2024-02-12T00:52:56.684Z,7.71
2024-02-12T00:53:29.942Z,7.69
2024-02-12T00:54:03.047Z,7.70
2024-02-12T00:54:36.887Z,7.69
2024-02-12T00:55:11.754Z,7.70
2024-02-12T00:55:45.381Z,7.65
2024-02-12T00:56:18.285Z,7.67
2024-02-12T00:56:50.264Z,7.69
2024-02-12T00:57:22.240Z,7.71
2024-02-12T00:57:54.189Z,7.71
2024-02-12T00:58:26.094Z,7.73
2024-02-12T00:58:57.976Z,7.71
2024-02-12T00:59:29.900Z,7.71
2024-02-12T01:00:05.270Z,7.74
2024-02-12T01:00:37.489Z,7.71
2024-02-12T01:01:11.739Z,7.70
2024-02-12T01:01:45.523Z,7.73
2024-02-12T01:02:17.493Z,7.75
2024-02-12T01:02:49.766Z,7.79
2024-02-12T01:03:23.501Z,7.76
2024-02-12T01:03:55.721Z,7.78
2024-02-12T01:04:27.958Z,7.79
2024-02-12T01:05:01.129Z,7.78
2024-02-12T01:05:33.122Z,7.77
2024-02-12T01:06:05.515Z,7.78
2024-02-12T01:06:40.859Z,7.81
2024-02-12T01:07:13.056Z,7.82
2024-02-12T01:07:45.807Z,7.79
2024-02-12T01:08:18.356Z,7.80
2024-02-12T01:08:50.851Z,7.83
2024-02-12T01:09:22.791Z,7.84
2024-02-12T01:09:55.443Z,7.86
2024-02-12T01:10:27.487Z,7.85
2024-02-12T01:10:59.404Z,7.85
2024-02-12T01:11:31.437Z,7.85
2024-02-12T01:12:04.783Z,7.86
2024-02-12T01:12:37.063Z,7.84
2024-02-12T01:13:09.187Z,7.85
2024-02-12T01:13:42.161Z,7.85
2024-02-12T01:14:14.191Z,7.88
2024-02-12T01:14:46.285Z,7.85
2024-02-12T01:15:18.180Z,7.87
2024-02-12T01:15:50.609Z,7.89
2024-02-12T01:16:26.236Z,7.89
2024-02-12T01:16:58.186Z,7.88
2024-02-12T01:17:30.730Z,7.87
2024-02-12T01:18:10.406Z,7.89
2024-02-12T01:18:43.582Z,7.90
2024-02-12T01:19:15.843Z,7.89
2024-02-12T01:19:48.497Z,7.89
2024-02-12T01:20:20.700Z,7.92
2024-02-12T01:20:53.692Z,7.90
2024-02-12T01:21:26.950Z,7.92
2024-02-12T01:22:01.379Z,7.92
2024-02-12T01:22:34.588Z,7.92
2024-02-12T01:23:08.142Z,7.92
2024-02-12T01:23:40.302Z,7.90
2024-02-12T01:24:16.011Z,7.91
2024-02-12T01:24:47.923Z,7.95
2024-02-12T01:25:20.304Z,7.93
2024-02-12T01:25:53.685Z,7.92
2024-02-12T01:26:27.045Z,7.95
2024-02-12T01:26:59.044Z,7.95
2024-02-12T01:27:30.975Z,7.95
2024-02-12T01:28:02.947Z,7.95
2024-02-12T01:28:36.828Z,7.95
2024-02-12T01:29:08.872Z,7.86
2024-02-12T01:29:41.789Z,7.88
2024-02-12T01:30:15.904Z,7.92
2024-02-12T01:30:49.162Z,7.91
2024-02-12T01:31:21.469Z,7.92
2024-02-12T01:31:53.477Z,7.93
2024-02-12T01:32:27.154Z,7.91
2024-02-12T01:32:59.234Z,7.90
2024-02-12T01:33:31.903Z,7.96
2024-02-12T01:34:08.004Z,7.93
2024-02-12T01:34:41.876Z,7.93
2024-02-12T01:35:13.988Z,7.93
2024-02-12T01:35:46.097Z,7.93
2024-02-12T01:36:18.199Z,7.91
2024-02-12T01:36:50.131Z,7.94
2024-02-12T01:37:24.021Z,7.95
2024-02-12T01:37:56.134Z,7.93
2024-02-12T01:38:28.177Z,7.93
2024-02-12T01:39:00.138Z,7.93
2024-02-12T01:39:32.082Z,7.93
2024-02-12T01:40:04.570Z,7.93
2024-02-12T01:40:36.505Z,7.92
2024-02-12T01:41:08.533Z,7.89
2024-02-12T01:41:40.491Z,7.87
2024-02-12T01:42:15.713Z,7.89
2024-02-12T01:42:51.564Z,7.88
2024-02-12T01:43:33.013Z,7.86
2024-02-12T01:44:05.769Z,7.89
2024-02-12T01:44:37.764Z,7.92
2024-02-12T01:45:18.593Z,7.92
2024-02-12T01:45:50.576Z,7.91
2024-02-12T01:46:22.510Z,7.91
2024-02-12T01:46:56.737Z,7.94
2024-02-12T01:47:28.790Z,7.93
2024-02-12T01:48:04.156Z,7.92
2024-02-12T01:48:38.271Z,7.93
2024-02-12T01:49:11.721Z,7.97
2024-02-12T01:49:45.107Z,7.93
2024-02-12T01:50:17.494Z,7.92
2024-02-12T01:50:50.056Z,7.93
2024-02-12T01:51:22.761Z,7.92
2024-02-12T01:51:55.731Z,7.92
2024-02-12T01:52:28.330Z,7.90
2024-02-12T01:53:00.397Z,7.96
2024-02-12T01:53:32.527Z,7.96
2024-02-12T01:54:04.712Z,7.92
2024-02-12T01:54:36.866Z,7.91
2024-02-12T01:55:10.022Z,7.90
2024-02-12T01:55:44.351Z,7.90
2024-02-12T01:56:17.538Z,7.89
2024-02-12T01:56:49.480Z,7.96
2024-02-12T01:57:21.462Z,7.95
2024-02-12T01:57:53.985Z,7.94
2024-02-12T01:58:25.869Z,7.96
2024-02-12T01:58:59.912Z,7.92
2024-02-12T01:59:31.919Z,7.88
2024-02-12T02:00:12.690Z,7.88
2024-02-12T02:00:49.798Z,7.89
2024-02-12T02:01:22.400Z,7.90
2024-02-12T02:01:54.925Z,7.91
2024-02-12T02:02:27.639Z,7.91
2024-02-12T02:02:59.759Z,7.89
2024-02-12T02:03:33.791Z,7.91
2024-02-12T02:04:08.342Z,7.92
2024-02-12T02:04:40.435Z,7.92
2024-02-12T02:05:17.250Z,7.93
2024-02-12T02:05:49.460Z,7.93
2024-02-12T02:06:21.683Z,7.92
2024-02-12T02:06:56.902Z,7.94
2024-02-12T02:07:28.985Z,7.93
2024-02-12T02:08:02.256Z,7.94
2024-02-12T02:08:38.115Z,7.94
2024-02-12T02:09:10.493Z,7.98
2024-02-12T02:09:44.251Z,7.91
2024-02-12T02:10:16.672Z,7.92
2024-02-12T02:10:49.985Z,7.92
2024-02-12T02:11:22.305Z,7.95
2024-02-12T02:11:54.483Z,7.93
2024-02-12T02:12:28.549Z,7.98
2024-02-12T02:13:02.001Z,7.93
2024-02-12T02:13:43.633Z,7.92
2024-02-12T02:14:15.853Z,7.95
2024-02-12T02:14:47.952Z,7.95
2024-02-12T02:15:20.813Z,7.97
2024-02-12T02:15:52.700Z,7.93
2024-02-12T02:16:24.902Z,7.97
2024-02-12T02:16:57.110Z,7.97
2024-02-12T02:17:29.409Z,7.97
2024-02-12T02:18:05.097Z,7.98
2024-02-12T02:18:38.210Z,7.94
2024-02-12T02:19:11.368Z,7.92
2024-02-12T02:19:43.716Z,7.93
2024-02-12T02:20:16.669Z,7.94
2024-02-12T02:20:48.757Z,7.91
2024-02-12T02:21:22.758Z,7.93
2024-02-12T02:21:55.636Z,7.91
2024-02-12T02:22:30.357Z,7.92
2024-02-12T02:23:04.695Z,7.94
2024-02-12T02:23:41.593Z,7.93
2024-02-12T02:24:16.424Z,7.89
2024-02-12T02:24:48.304Z,7.90
2024-02-12T02:25:23.961Z,7.92
2024-02-12T02:25:57.176Z,7.91
2024-02-12T02:26:29.438Z,7.87
2024-02-12T02:27:01.531Z,7.89
2024-02-12T02:27:36.017Z,7.89
2024-02-12T02:28:07.939Z,7.91
2024-02-12T02:28:39.890Z,7.88
2024-02-12T02:29:13.462Z,7.87
2024-02-12T02:29:45.380Z,7.85
2024-02-12T02:30:17.459Z,7.88
2024-02-12T02:30:49.889Z,7.87
2024-02-12T02:31:21.750Z,7.85
2024-02-12T02:31:53.761Z,7.84
2024-02-12T02:32:27.644Z,7.81
2024-02-12T02:32:59.770Z,7.80
2024-02-12T02:33:32.687Z,7.80
2024-02-12T02:34:04.824Z,7.77
2024-02-12T02:34:36.789Z,7.78
2024-02-12T02:35:11.548Z,7.78
2024-02-12T02:35:46.016Z,7.79
2024-02-12T02:36:18.340Z,7.76
2024-02-12T02:36:50.274Z,7.79
2024-02-12T02:37:22.551Z,7.80
2024-02-12T02:37:55.506Z,7.77
2024-02-12T02:38:27.511Z,7.77
2024-02-12T02:39:03.408Z,7.77
2024-02-12T02:39:35.380Z,7.74
2024-02-12T02:40:10.119Z,7.75
2024-02-12T02:40:44.169Z,7.75
2024-02-12T02:41:16.263Z,7.77
2024-02-12T02:41:48.201Z,7.76
2024-02-12T02:42:20.191Z,7.74
2024-02-12T02:42:54.064Z,7.73
2024-02-12T02:43:26.036Z,7.73
2024-02-12T02:43:58.065Z,7.73
2024-02-12T02:44:31.002Z,7.71
2024-02-12T02:45:03.443Z,7.71
2024-02-12T02:45:36.203Z,7.71
2024-02-12T02:46:08.165Z,7.71
2024-02-12T02:46:40.344Z,7.71
2024-02-12T02:47:12.378Z,7.71
2024-02-12T02:47:44.911Z,7.71
2024-02-12T02:48:17.083Z,7.67
2024-02-12T02:48:49.137Z,7.72
2024-02-12T02:49:21.122Z,7.72
2024-02-12T02:49:53.072Z,7.72
2024-02-12T02:50:26.619Z,7.69
2024-02-12T02:50:58.941Z,7.71
2024-02-12T02:51:30.960Z,7.71
2024-02-12T02:52:04.182Z,7.70
2024-02-12T02:52:36.153Z,7.69
2024-02-12T02:53:10.458Z,7.69
2024-02-12T02:53:42.609Z,7.68
2024-02-12T02:54:15.278Z,7.71
2024-02-12T02:54:48.507Z,7.73
2024-02-12T02:55:23.649Z,7.72
2024-02-12T02:55:55.616Z,7.68
2024-02-12T02:56:27.656Z,7.72
2024-02-12T02:56:59.614Z,7.74
2024-02-12T02:57:31.553Z,7.70
2024-02-12T02:58:03.620Z,7.69
2024-02-12T02:58:35.632Z,7.70
2024-02-12T02:59:10.290Z,7.72
2024-02-12T02:59:43.356Z,7.69
2024-02-12T03:00:16.772Z,7.72
2024-02-12T03:00:48.815Z,7.69
2024-02-12T03:01:21.111Z,7.68
2024-02-12T03:01:53.606Z,7.70
2024-02-12T03:02:25.645Z,7.67
2024-02-12T03:02:58.684Z,7.69
2024-02-12T03:03:30.633Z,7.66
2024-02-12T03:04:03.292Z,7.67
2024-02-12T03:04:36.900Z,7.69
2024-02-12T03:05:10.619Z,7.67
2024-02-12T03:05:42.876Z,7.70
2024-02-12T03:06:16.128Z,7.70
2024-02-12T03:06:48.346Z,7.72
2024-02-12T03:07:20.259Z,7.67
2024-02-12T03:07:52.194Z,7.63
2024-02-12T03:08:24.213Z,7.66
2024-02-12T03:08:56.119Z,7.67
2024-02-12T03:09:28.050Z,7.65
2024-02-12T03:09:59.986Z,7.64
2024-02-12T03:10:32.393Z,7.63
2024-02-12T03:11:05.806Z,7.64
2024-02-12T03:11:41.435Z,7.67
2024-02-12T03:12:14.183Z,7.67
2024-02-12T03:12:46.953Z,7.64
2024-02-12T03:13:18.974Z,7.63
2024-02-12T03:13:57.238Z,7.58
2024-02-12T03:14:29.395Z,7.58
2024-02-12T03:15:01.794Z,7.61
2024-02-12T03:15:37.089Z,7.63
2024-02-12T03:16:14.778Z,7.61
2024-02-12T03:16:47.050Z,7.61
2024-02-12T03:17:19.054Z,7.65
2024-02-12T03:17:51.138Z,7.61
2024-02-12T03:18:23.664Z,7.62
2024-02-12T03:18:57.272Z,7.62
2024-02-12T03:19:29.586Z,7.65
2024-02-12T03:20:01.833Z,7.65
2024-02-12T03:20:34.056Z,7.67
2024-02-12T03:21:06.173Z,7.66
2024-02-12T03:21:38.694Z,7.65
2024-02-12T03:22:10.620Z,7.62
2024-02-12T03:22:43.279Z,7.64
2024-02-12T03:23:15.245Z,7.61
2024-02-12T03:23:50.236Z,7.63
2024-02-12T03:24:22.665Z,7.66
2024-02-12T03:24:57.776Z,7.71
2024-02-12T03:25:29.779Z,7.68
2024-02-12T03:26:03.466Z,7.70
2024-02-12T03:26:35.522Z,7.64
2024-02-12T03:27:07.604Z,7.61
2024-02-12T03:27:42.450Z,7.61
2024-02-12T03:28:14.562Z,7.65
2024-02-12T03:28:46.547Z,7.65
2024-02-12T03:29:20.649Z,7.64
2024-02-12T03:29:53.832Z,7.66
2024-02-12T03:30:26.173Z,7.66
2024-02-12T03:30:58.246Z,7.68
2024-02-12T03:31:31.185Z,7.68
2024-02-12T03:32:05.234Z,7.65
2024-02-12T03:32:40.846Z,7.66
2024-02-12T03:33:12.908Z,7.62
2024-02-12T03:33:45.427Z,7.66
2024-02-12T03:34:17.774Z,7.67
2024-02-12T03:34:49.843Z,7.67
2024-02-12T03:35:21.884Z,7.68
2024-02-12T03:35:53.817Z,7.67
2024-02-12T03:36:26.977Z,7.66
2024-02-12T03:36:58.900Z,7.66
2024-02-12T03:37:30.808Z,7.67
2024-02-12T03:38:02.743Z,7.68
2024-02-12T03:38:34.698Z,7.71
2024-02-12T03:39:09.343Z,7.73
2024-02-12T03:39:41.276Z,7.73
2024-02-12T03:40:15.162Z,7.75
2024-02-12T03:40:47.014Z,7.74
2024-02-12T03:41:25.935Z,7.73
2024-02-12T03:41:58.128Z,7.71
2024-02-12T03:42:30.129Z,7.72
2024-02-12T03:43:05.940Z,7.72
2024-02-12T03:43:39.329Z,7.69
2024-02-12T03:44:11.484Z,7.72
2024-02-12T03:44:43.657Z,7.70
2024-02-12T03:45:16.922Z,7.73
2024-02-12T03:45:49.711Z,7.75
2024-02-12T03:46:22.125Z,7.75
2024-02-12T03:46:55.536Z,7.76
2024-02-12T03:47:39.848Z,7.78
2024-02-12T03:48:31.139Z,7.76
2024-02-12T03:49:22.185Z,7.76
2024-02-12T03:50:13.065Z,7.79
2024-02-12T03:51:03.517Z,7.75
2024-02-12T03:51:54.047Z,7.77
2024-02-12T03:52:46.432Z,7.75
2024-02-12T03:53:40.287Z,7.75
2024-02-12T03:54:30.886Z,7.74
2024-02-12T03:55:21.437Z,7.75
2024-02-12T03:56:12.036Z,7.70
2024-02-12T03:57:02.504Z,7.72
2024-02-12T03:57:59.146Z,7.77
2024-02-12T03:58:49.776Z,7.75
2024-02-12T03:59:40.316Z,7.77
2024-02-12T04:00:17.869Z,7.77
2024-02-12T04:00:52.245Z,7.79
2024-02-12T04:01:24.206Z,7.80
2024-02-12T04:01:56.136Z,7.74
2024-02-12T04:02:29.195Z,7.79
2024-02-12T04:03:01.397Z,7.79
2024-02-12T04:03:33.774Z,7.78
2024-02-12T04:04:05.683Z,7.72
2024-02-12T04:04:39.649Z,7.76
2024-02-12T04:05:12.227Z,7.74
2024-02-12T04:05:44.323Z,7.71
2024-02-12T04:06:17.056Z,7.70
2024-02-12T04:06:49.005Z,7.71
2024-02-12T04:07:25.540Z,7.68
2024-02-12T04:07:58.551Z,7.68
2024-02-12T04:08:30.552Z,7.71
2024-02-12T04:09:02.435Z,7.74
2024-02-12T04:09:39.798Z,7.72
2024-02-12T04:10:12.886Z,7.70
2024-02-12T04:10:44.959Z,7.72
2024-02-12T04:11:16.987Z,7.72
2024-02-12T04:11:49.049Z,7.71
2024-02-12T04:12:21.069Z,7.72
2024-02-12T04:12:52.979Z,7.73
2024-02-12T04:13:25.944Z,7.72
2024-02-12T04:13:58.174Z,7.71
2024-02-12T04:14:31.101Z,7.70
2024-02-12T04:15:03.159Z,7.71
2024-02-12T04:15:42.615Z,7.71
2024-02-12T04:16:15.938Z,7.73
2024-02-12T04:16:52.990Z,7.73
2024-02-12T04:17:26.608Z,7.75
2024-02-12T04:17:58.821Z,7.76
2024-02-12T04:18:31.865Z,7.75
2024-02-12T04:19:07.122Z,7.76
2024-02-12T04:19:39.638Z,7.73
2024-02-12T04:20:12.250Z,7.70
2024-02-12T04:20:44.609Z,7.67
2024-02-12T04:21:18.431Z,7.68
2024-02-12T04:21:53.530Z,7.72
2024-02-12T04:22:27.998Z,7.73
2024-02-12T04:23:02.420Z,7.75
2024-02-12T04:23:34.370Z,7.76
2024-02-12T04:24:06.628Z,7.77
2024-02-12T04:24:42.514Z,7.80
2024-02-12T04:25:15.006Z,7.80
2024-02-12T04:25:47.028Z,7.77
2024-02-12T04:26:19.673Z,7.78
2024-02-12T04:26:51.853Z,7.76
2024-02-12T04:27:23.919Z,7.76
2024-02-12T04:28:02.217Z,7.75
2024-02-12T04:28:34.432Z,7.77
2024-02-12T04:29:06.972Z,7.76
2024-02-12T04:29:41.714Z,7.79
2024-02-12T04:30:14.096Z,7.79
2024-02-12T04:30:46.494Z,7.82
2024-02-12T04:31:18.485Z,7.84
2024-02-12T04:31:50.494Z,7.80
2024-02-12T04:32:22.403Z,7.82
2024-02-12T04:32:54.555Z,7.85
2024-02-12T04:33:26.512Z,7.82
2024-02-12T04:33:58.507Z,7.84
2024-02-12T04:34:30.670Z,7.80
2024-02-12T04:35:06.522Z,7.80
2024-02-12T04:35:38.693Z,7.80
2024-02-12T04:36:10.659Z,7.83
2024-02-12T04:36:45.892Z,7.83
2024-02-12T04:37:17.906Z,7.85
2024-02-12T04:37:49.767Z,7.87
2024-02-12T04:38:22.485Z,7.88
2024-02-12T04:38:54.608Z,7.91
2024-02-12T04:39:26.516Z,7.91
2024-02-12T04:39:58.602Z,7.93
2024-02-12T04:40:31.168Z,7.87
2024-02-12T04:41:03.337Z,7.84
2024-02-12T04:41:42.671Z,7.82
2024-02-12T04:42:14.628Z,7.80
2024-02-12T04:42:49.440Z,7.76
2024-02-12T04:43:21.471Z,7.78
2024-02-12T04:43:53.513Z,7.79
2024-02-12T04:44:25.601Z,7.81
2024-02-12T04:44:57.520Z,7.84
2024-02-12T04:45:32.043Z,7.86
2024-02-12T04:46:04.012Z,7.88
2024-02-12T04:46:39.689Z,7.90
2024-02-12T04:47:11.730Z,7.93
2024-02-12T04:47:43.799Z,7.96
2024-02-12T04:48:15.977Z,7.96
2024-02-12T04:48:48.541Z,7.95
2024-02-12T04:49:23.245Z,7.96
2024-02-12T04:49:56.060Z,7.95
2024-02-12T04:50:29.431Z,7.91
2024-02-12T04:51:01.429Z,7.90
2024-02-12T04:51:33.937Z,7.85
2024-02-12T04:52:07.246Z,7.84
2024-02-12T04:52:39.361Z,7.86
2024-02-12T04:53:11.442Z,7.85
2024-02-12T04:53:43.671Z,7.82
2024-02-12T04:54:15.997Z,7.82
2024-02-12T04:54:47.909Z,7.79
2024-02-12T04:55:19.791Z,7.79
2024-02-12T04:55:51.811Z,7.77
2024-02-12T04:56:23.795Z,7.75
2024-02-12T04:56:56.037Z,7.75
2024-02-12T04:57:27.996Z,7.76
2024-02-12T04:58:02.210Z,7.77
2024-02-12T04:58:36.721Z,7.78
2024-02-12T04:59:20.850Z,7.75
2024-02-12T04:59:53.976Z,7.69
2024-02-12T05:00:25.867Z,7.69
2024-02-12T05:00:58.796Z,7.67
2024-02-12T05:01:31.291Z,7.62
2024-02-12T05:02:03.811Z,7.61
2024-02-12T05:02:35.813Z,7.62
2024-02-12T05:03:09.320Z,7.65
2024-02-12T05:03:43.088Z,7.60
2024-02-12T05:04:19.493Z,7.58
2024-02-12T05:04:51.729Z,7.56
2024-02-12T05:05:23.688Z,7.53
2024-02-12T05:05:56.022Z,7.57
2024-02-12T05:06:28.522Z,7.56
2024-02-12T05:07:01.296Z,7.58
2024-02-12T05:07:34.109Z,7.55
2024-02-12T05:08:06.283Z,7.54
2024-02-12T05:08:38.396Z,7.55
2024-02-12T05:09:13.196Z,7.54
2024-02-12T05:09:45.783Z,7.55
2024-02-12T05:10:17.783Z,7.54
2024-02-12T05:10:52.414Z,7.54
2024-02-12T05:11:27.170Z,7.54
2024-02-12T05:11:59.117Z,7.54
2024-02-12T05:12:31.124Z,7.55
2024-02-12T05:13:03.054Z,7.59
2024-02-12T05:13:37.017Z,7.53
2024-02-12T05:14:09.023Z,7.52
2024-02-12T05:14:41.031Z,7.49
2024-02-12T05:15:13.373Z,7.49
2024-02-12T05:15:45.259Z,7.50
2024-02-12T05:16:19.640Z,7.52
2024-02-12T05:16:51.526Z,7.50
2024-02-12T05:17:33.276Z,7.51
2024-02-12T05:18:28.637Z,7.50
2024-02-12T05:19:22.951Z,7.52
2024-02-12T05:20:14.034Z,7.52
2024-02-12T05:21:04.746Z,7.50
2024-02-12T05:21:55.359Z,7.51
2024-02-12T05:22:36.458Z,7.53
2024-02-12T05:23:10.473Z,7.53
2024-02-12T05:23:42.529Z,7.54
2024-02-12T05:24:14.424Z,7.54
2024-02-12T05:24:46.317Z,7.53
2024-02-12T05:25:20.377Z,7.51
2024-02-12T05:25:52.350Z,7.52
2024-02-12T05:26:24.370Z,7.54
2024-02-12T05:26:57.714Z,7.53
2024-02-12T05:27:29.978Z,7.51
2024-02-12T05:28:01.913Z,7.50
2024-02-12T05:28:34.763Z,7.50
2024-02-12T05:29:08.390Z,7.46
2024-02-12T05:29:42.085Z,7.52
2024-02-12T05:30:14.728Z,7.50
2024-02-12T05:30:47.680Z,7.48
2024-02-12T05:31:19.588Z,7.53
2024-02-12T05:31:54.864Z,7.53
2024-02-12T05:32:29.112Z,7.54
2024-02-12T05:33:02.158Z,7.53
2024-02-12T05:33:34.199Z,7.51
2024-02-12T05:34:08.219Z,7.49
2024-02-12T05:34:42.605Z,7.48
2024-02-12T05:35:14.646Z,7.52
2024-02-12T05:35:46.861Z,7.54
2024-02-12T05:36:20.349Z,7.55
2024-02-12T05:36:53.414Z,7.52
2024-02-12T05:37:25.385Z,7.50
2024-02-12T05:37:58.250Z,7.48
2024-02-12T05:38:30.318Z,7.49
2024-02-12T05:39:02.269Z,7.47
2024-02-12T05:39:35.388Z,7.47
2024-02-12T05:40:08.921Z,7.47
2024-02-12T05:40:41.215Z,7.49
2024-02-12T05:41:13.637Z,7.47
2024-02-12T05:41:45.577Z,7.49
2024-02-12T05:42:17.556Z,7.47
2024-02-12T05:42:49.444Z,7.46
2024-02-12T05:43:21.365Z,7.48
2024-02-12T05:43:54.605Z,7.52
2024-02-12T05:44:26.980Z,7.52
2024-02-12T05:44:59.276Z,7.52
2024-02-12T05:45:32.175Z,7.52
2024-02-12T05:46:05.716Z,7.53
2024-02-12T05:46:38.119Z,7.55
2024-02-12T05:47:10.094Z,7.56
2024-02-12T05:47:42.469Z,7.52
2024-02-12T05:48:14.471Z,7.53
2024-02-12T05:48:46.411Z,7.52
2024-02-12T05:49:24.978Z,7.53
2024-02-12T05:49:57.001Z,7.57
2024-02-12T05:50:28.923Z,7.58
2024-02-12T05:51:00.924Z,7.59
2024-02-12T05:51:33.202Z,7.59
2024-02-12T05:52:05.470Z,7.55
2024-02-12T05:52:38.787Z,7.58
2024-02-12T05:53:11.236Z,7.60
2024-02-12T05:53:43.212Z,7.58
2024-02-12T05:54:15.256Z,7.59
2024-02-12T05:54:47.697Z,7.61
2024-02-12T05:55:19.734Z,7.62
2024-02-12T05:55:53.845Z,7.60
2024-02-12T05:56:25.997Z,7.60
2024-02-12T05:56:58.946Z,7.61
2024-02-12T05:57:31.142Z,7.60
2024-02-12T05:58:03.190Z,7.62
2024-02-12T05:58:36.133Z,7.62
2024-02-12T05:59:08.753Z,7.62
2024-02-12T05:59:41.170Z,7.62
2024-02-12T06:00:13.603Z,7.62
2024-02-12T06:00:48.201Z,7.66
2024-02-12T06:01:20.507Z,7.65
2024-02-12T06:01:52.454Z,7.65
2024-02-12T06:02:24.681Z,7.65
2024-02-12T06:02:56.617Z,7.67
2024-02-12T06:03:28.835Z,7.67
2024-02-12T06:04:00.845Z,7.67
2024-02-12T06:04:33.364Z,7.66
2024-02-12T06:05:06.251Z,7.69
2024-02-12T06:05:38.491Z,7.69
2024-02-12T06:06:11.698Z,7.67
2024-02-12T06:06:44.321Z,7.66
2024-02-12T06:07:16.561Z,7.66
2024-02-12T06:07:48.806Z,7.67
2024-02-12T06:08:20.986Z,7.67
2024-02-12T06:08:53.060Z,7.64
2024-02-12T06:09:25.060Z,7.70
2024-02-12T06:09:57.014Z,7.67
2024-02-12T06:10:28.943Z,7.68
2024-02-12T06:11:00.958Z,7.68
2024-02-12T06:11:33.010Z,7.67
2024-02-12T06:12:06.054Z,7.69
2024-02-12T06:12:37.995Z,7.69
2024-02-12T06:13:12.466Z,7.67
2024-02-12T06:13:44.419Z,7.69
2024-02-12T06:14:16.396Z,7.69
2024-02-12T06:14:49.281Z,7.70
2024-02-12T06:15:21.837Z,7.70
2024-02-12T06:15:54.312Z,7.70
2024-02-12T06:16:26.513Z,7.70
2024-02-12T06:16:58.469Z,7.72
2024-02-12T06:17:30.387Z,7.74
2024-02-12T06:18:02.688Z,7.76
2024-02-12T06:18:34.774Z,7.75
2024-02-12T06:19:08.712Z,7.74
2024-02-12T06:19:41.915Z,7.77
2024-02-12T06:20:13.995Z,7.74
2024-02-12T06:20:46.300Z,7.77
2024-02-12T06:21:18.782Z,7.74
2024-02-12T06:21:51.186Z,7.74
2024-02-12T06:22:23.113Z,7.74
2024-02-12T06:22:55.217Z,7.75
2024-02-12T06:23:27.744Z,7.80
2024-02-12T06:24:00.330Z,7.80
2024-02-12T06:24:33.063Z,7.78
2024-02-12T06:25:06.996Z,7.78
2024-02-12T06:25:39.002Z,7.80
2024-02-12T06:26:19.056Z,7.80
2024-02-12T06:26:53.271Z,7.82
2024-02-12T06:27:25.283Z,7.83
2024-02-12T06:27:59.011Z,7.81
2024-02-12T06:28:30.930Z,7.80
2024-02-12T06:29:05.158Z,7.78
2024-02-12T06:29:40.013Z,7.79
2024-02-12T06:30:13.366Z,7.80
2024-02-12T06:30:45.374Z,7.80
2024-02-12T06:31:18.033Z,7.79
2024-02-12T06:31:49.942Z,7.79
2024-02-12T06:32:23.247Z,7.81
2024-02-12T06:32:55.304Z,7.80
2024-02-12T06:33:27.535Z,7.82
2024-02-12T06:33:59.802Z,7.82
2024-02-12T06:34:34.131Z,7.82
2024-02-12T06:35:08.188Z,7.84
2024-02-12T06:35:40.174Z,7.90
2024-02-12T06:36:12.182Z,7.87
2024-02-12T06:36:44.256Z,7.85
2024-02-12T06:37:16.672Z,7.88
2024-02-12T06:37:48.734Z,7.88
2024-02-12T06:38:20.662Z,7.88
2024-02-12T06:38:52.627Z,7.90
2024-02-12T06:39:28.792Z,7.90
2024-02-12T06:40:00.743Z,7.89
2024-02-12T06:40:32.893Z,7.92
2024-02-12T06:41:05.035Z,7.95
2024-02-12T06:41:37.290Z,7.89
2024-02-12T06:42:09.428Z,7.91
2024-02-12T06:42:42.994Z,7.91
2024-02-12T06:43:14.977Z,7.96
2024-02-12T06:43:47.144Z,7.97
2024-02-12T06:44:20.332Z,7.95
2024-02-12T06:44:52.275Z,7.98
2024-02-12T06:45:24.169Z,7.96
2024-02-12T06:45:56.084Z,7.99
2024-02-12T06:46:28.314Z,8.00
2024-02-12T06:47:00.329Z,8.03
2024-02-12T06:47:32.554Z,8.00
2024-02-12T06:48:05.272Z,8.04
2024-02-12T06:48:37.319Z,8.03
2024-02-12T06:49:09.358Z,8.05
2024-02-12T06:49:41.720Z,8.02
2024-02-12T06:50:13.863Z,8.02
2024-02-12T06:50:46.200Z,8.07
2024-02-12T06:51:18.309Z,8.09
2024-02-12T06:51:50.201Z,8.07
2024-02-12T06:52:22.669Z,8.11
2024-02-12T06:52:54.652Z,8.11
2024-02-12T06:53:26.573Z,8.13
2024-02-12T06:53:58.525Z,8.14
2024-02-12T06:54:30.823Z,8.12
2024-02-12T06:55:02.748Z,8.15
2024-02-12T06:55:35.414Z,8.16
2024-02-12T06:56:09.419Z,8.19
2024-02-12T06:56:45.802Z,8.20
2024-02-12T06:57:18.476Z,8.21
2024-02-12T06:57:50.474Z,8.25
2024-02-12T06:58:22.498Z,8.27
2024-02-12T06:58:54.441Z,8.26
2024-02-12T06:59:26.661Z,8.27
2024-02-12T06:59:58.572Z,8.28
2024-02-12T07:00:31.291Z,8.30
2024-02-12T07:01:06.046Z,8.30
2024-02-12T07:01:39.333Z,8.29
2024-02-12T07:02:11.667Z,8.31
2024-02-12T07:02:44.697Z,8.30
2024-02-12T07:03:17.833Z,8.32
2024-02-12T07:03:51.249Z,8.38
2024-02-12T07:04:23.174Z,8.38
2024-02-12T07:04:55.345Z,8.37
2024-02-12T07:05:27.347Z,8.38
2024-02-12T07:05:59.993Z,8.37
2024-02-12T07:06:32.414Z,8.41
2024-02-12T07:07:05.013Z,8.39
2024-02-12T07:07:37.155Z,8.40
2024-02-12T07:08:11.638Z,8.39
2024-02-12T07:08:44.022Z,8.45
2024-02-12T07:09:16.144Z,8.44
2024-02-12T07:09:48.203Z,8.49
2024-02-12T07:10:22.665Z,8.48
2024-02-12T07:10:54.652Z,8.50
2024-02-12T07:11:29.647Z,8.49
2024-02-12T07:12:02.075Z,8.49
2024-02-12T07:12:34.522Z,8.48
2024-02-12T07:13:06.494Z,8.44
2024-02-12T07:13:38.488Z,8.46
2024-02-12T07:14:10.784Z,8.45
2024-02-12T07:14:43.512Z,8.48
2024-02-12T07:15:16.049Z,8.48
2024-02-12T07:15:48.036Z,8.49
2024-02-12T07:16:21.448Z,8.52
2024-02-12T07:16:53.386Z,8.53
2024-02-12T07:17:25.406Z,8.52
2024-02-12T07:17:57.752Z,8.55
2024-02-12T07:18:29.869Z,8.57
2024-02-12T07:19:02.215Z,8.52
2024-02-12T07:19:36.734Z,8.51
2024-02-12T07:20:13.503Z,8.51
2024-02-12T07:20:45.710Z,8.51
2024-02-12T07:21:17.734Z,8.51
2024-02-12T07:21:50.199Z,8.50
2024-02-12T07:22:22.921Z,8.53
2024-02-12T07:22:54.861Z,8.57
2024-02-12T07:23:27.384Z,8.59
2024-02-12T07:23:59.347Z,8.57
2024-02-12T07:24:31.318Z,8.57
2024-02-12T07:25:05.327Z,8.60